createdAt,value
2023-01-20T00:00:07.580Z,983.15
2023-01-20T00:01:07.620Z,983.18
2023-01-20T00:02:07.565Z,983.16
2023-01-20T00:03:07.559Z,983.17
2023-01-20T00:04:07.559Z,983.20
2023-01-20T00:05:07.553Z,983.22
2023-01-20T00:06:07.546Z,983.30
2023-01-20T00:07:07.534Z,983.22
2023-01-20T00:08:07.488Z,983.28
2023-01-20T00:09:07.499Z,983.28
2023-01-20T00:10:07.499Z,983.31
2023-01-20T00:11:07.473Z,983.25
2023-01-20T00:12:07.460Z,983.24
2023-01-20T00:13:07.449Z,983.25
2023-01-20T00:14:07.436Z,983.25
2023-01-20T00:15:07.438Z,983.25
2023-01-20T00:16:07.492Z,983.27
2023-01-20T00:17:07.427Z,983.24
2023-01-20T00:18:07.406Z,983.31
2023-01-20T00:19:07.415Z,983.30
2023-01-20T00:20:07.377Z,983.33
2023-01-20T00:21:07.363Z,983.34
2023-01-20T00:22:07.388Z,983.31
2023-01-20T00:23:07.359Z,983.37
2023-01-20T00:24:07.340Z,983.40
2023-01-20T00:25:07.338Z,983.41
2023-01-20T00:26:07.324Z,983.41
2023-01-20T00:27:07.347Z,983.46
2023-01-20T00:28:07.359Z,983.48
2023-01-20T00:29:07.282Z,983.43
2023-01-20T00:30:07.300Z,983.47
2023-01-20T00:31:07.308Z,983.47
2023-01-20T00:32:08.269Z,983.42
2023-01-20T00:33:07.254Z,983.48
2023-01-20T00:34:07.255Z,983.46
2023-01-20T00:35:07.244Z,983.53
2023-01-20T00:36:07.251Z,983.54
2023-01-20T00:37:07.222Z,983.51
2023-01-20T00:38:07.206Z,983.53
2023-01-20T00:39:07.202Z,983.54
2023-01-20T00:40:07.206Z,983.51
2023-01-20T00:41:07.187Z,983.57
2023-01-20T00:42:07.190Z,983.59
2023-01-20T00:43:07.167Z,983.63
2023-01-20T00:44:07.154Z,983.59
2023-01-20T00:45:07.139Z,983.59
2023-01-20T00:46:07.127Z,983.62
2023-01-20T00:47:07.136Z,983.66
2023-01-20T00:48:07.109Z,983.70
2023-01-20T00:49:07.123Z,983.69
2023-01-20T00:50:07.092Z,983.74
2023-01-20T00:51:07.089Z,983.70
2023-01-20T00:52:07.075Z,983.66
2023-01-20T00:53:07.067Z,983.74
2023-01-20T00:54:07.067Z,983.75
2023-01-20T00:55:07.070Z,983.73
2023-01-20T00:56:07.057Z,983.77
2023-01-20T00:57:07.019Z,983.78
2023-01-20T00:58:07.025Z,983.83
2023-01-20T00:59:07.026Z,983.83
2023-01-20T01:00:06.994Z,983.83
2023-01-20T01:01:07.057Z,983.85
2023-01-20T01:02:07.156Z,983.87
2023-01-20T01:03:06.964Z,983.89
2023-01-20T01:04:06.974Z,983.92
2023-01-20T01:05:06.953Z,983.92
2023-01-20T01:06:06.930Z,983.91
2023-01-20T01:07:06.935Z,983.89
2023-01-20T01:08:06.907Z,983.93
2023-01-20T01:09:06.933Z,983.94
2023-01-20T01:10:06.899Z,983.97
2023-01-20T01:11:06.920Z,983.97
2023-01-20T01:12:06.871Z,983.94
2023-01-20T01:13:06.864Z,983.94
2023-01-20T01:14:06.884Z,984.00
2023-01-20T01:15:06.845Z,984.03
2023-01-20T01:16:06.868Z,983.94
2023-01-20T01:17:06.811Z,983.99
2023-01-20T01:18:06.833Z,983.98
2023-01-20T01:19:06.812Z,983.96
2023-01-20T01:20:06.806Z,984.01
2023-01-20T01:21:06.789Z,984.02
2023-01-20T01:22:06.807Z,984.04
2023-01-20T01:23:06.764Z,984.07
2023-01-20T01:24:06.761Z,984.12
2023-01-20T01:25:06.802Z,984.04
2023-01-20T01:26:06.745Z,984.02
2023-01-20T01:27:06.733Z,984.09
2023-01-20T01:28:06.718Z,984.05
2023-01-20T01:29:06.727Z,984.07
2023-01-20T01:30:06.734Z,984.07
2023-01-20T01:31:06.800Z,984.04
2023-01-20T01:32:07.678Z,984.15
2023-01-20T01:33:06.676Z,984.12
2023-01-20T01:34:06.659Z,984.13
2023-01-20T01:35:06.713Z,984.14
2023-01-20T01:36:06.653Z,984.14
2023-01-20T01:37:06.629Z,984.17
2023-01-20T01:38:06.652Z,984.17
2023-01-20T01:39:06.618Z,984.15
2023-01-20T01:40:06.650Z,984.18
2023-01-20T01:41:06.603Z,984.16
2023-01-20T01:42:06.596Z,984.15
2023-01-20T01:43:06.569Z,984.12
2023-01-20T01:44:06.571Z,984.12
2023-01-20T01:45:06.565Z,984.11
2023-01-20T01:46:06.623Z,984.15
2023-01-20T01:47:06.540Z,984.11
2023-01-20T01:48:06.536Z,984.16
2023-01-20T01:49:06.528Z,984.17
2023-01-20T01:50:06.514Z,984.15
2023-01-20T01:51:38.429Z,984.17
2023-01-20T01:52:06.531Z,984.19
2023-01-20T01:53:06.512Z,984.15
2023-01-20T01:54:06.482Z,984.14
2023-01-20T01:55:06.472Z,984.14
2023-01-20T01:56:06.493Z,984.10
2023-01-20T01:57:06.452Z,984.18
2023-01-20T01:58:06.449Z,984.12
2023-01-20T01:59:06.437Z,984.14
2023-01-20T02:00:06.417Z,984.13
2023-01-20T02:01:06.498Z,984.12
2023-01-20T02:02:06.412Z,984.14
2023-01-20T02:03:06.377Z,984.19
2023-01-20T02:04:06.395Z,984.19
2023-01-20T02:05:06.368Z,984.23
2023-01-20T02:06:06.374Z,984.24
2023-01-20T02:07:06.402Z,984.19
2023-01-20T02:08:06.354Z,984.18
2023-01-20T02:09:06.338Z,984.21
2023-01-20T02:10:06.328Z,984.21
2023-01-20T02:11:06.315Z,984.21
2023-01-20T02:12:06.348Z,984.25
2023-01-20T02:13:06.296Z,984.23
2023-01-20T02:14:06.288Z,984.29
2023-01-20T02:15:06.292Z,984.27
2023-01-20T02:16:06.302Z,984.28
2023-01-20T02:17:06.287Z,984.29
2023-01-20T02:18:06.243Z,984.28
2023-01-20T02:19:06.261Z,984.35
2023-01-20T02:20:06.233Z,984.26
2023-01-20T02:21:06.263Z,984.27
2023-01-20T02:22:06.217Z,984.28
2023-01-20T02:23:06.226Z,984.33
2023-01-20T02:24:06.193Z,984.35
2023-01-20T02:25:06.195Z,984.37
2023-01-20T02:26:06.170Z,984.35
2023-01-20T02:27:06.159Z,984.37
2023-01-20T02:28:06.188Z,984.40
2023-01-20T02:29:06.142Z,984.41
2023-01-20T02:30:06.133Z,984.42
2023-01-20T02:31:06.126Z,984.47
2023-01-20T02:32:06.114Z,984.45
2023-01-20T02:33:07.119Z,984.43
2023-01-20T02:34:06.110Z,984.45
2023-01-20T02:35:06.087Z,984.44
2023-01-20T02:36:06.088Z,984.49
2023-01-20T02:37:06.079Z,984.56
2023-01-20T02:38:06.054Z,984.48
2023-01-20T02:39:06.102Z,984.48
2023-01-20T02:40:06.022Z,984.52
2023-01-20T02:41:06.024Z,984.52
2023-01-20T02:42:06.011Z,984.54
2023-01-20T02:43:06.012Z,984.52
2023-01-20T02:44:06.029Z,984.51
2023-01-20T02:45:05.976Z,984.53
2023-01-20T02:46:06.050Z,984.55
2023-01-20T02:47:05.955Z,984.56
2023-01-20T02:48:05.946Z,984.60
2023-01-20T02:49:06.044Z,984.55
2023-01-20T02:50:05.949Z,984.60
2023-01-20T02:51:05.917Z,984.59
2023-01-20T02:52:05.916Z,984.59
2023-01-20T02:53:05.901Z,984.60
2023-01-20T02:54:05.916Z,984.57
2023-01-20T02:55:05.902Z,984.58
2023-01-20T02:56:05.863Z,984.53
2023-01-20T02:57:05.881Z,984.52
2023-01-20T02:58:05.865Z,984.57
2023-01-20T02:59:05.846Z,984.55
2023-01-20T03:00:05.837Z,984.59
2023-01-20T03:01:05.950Z,984.54
2023-01-20T03:02:05.952Z,984.62
2023-01-20T03:03:05.848Z,984.59
2023-01-20T03:04:05.846Z,984.61
2023-01-20T03:05:05.809Z,984.58
2023-01-20T03:06:05.771Z,984.68
2023-01-20T03:07:05.766Z,984.62
2023-01-20T03:08:05.764Z,984.61
2023-01-20T03:09:05.768Z,984.61
2023-01-20T03:10:05.743Z,984.71
2023-01-20T03:11:05.720Z,984.68
2023-01-20T03:12:05.721Z,984.67
2023-01-20T03:13:05.745Z,984.72
2023-01-20T03:14:05.705Z,984.75
2023-01-20T03:15:05.689Z,984.75
2023-01-20T03:16:05.679Z,984.76
2023-01-20T03:17:05.677Z,984.71
2023-01-20T03:18:05.689Z,984.77
2023-01-20T03:19:05.763Z,984.78
2023-01-20T03:20:05.640Z,984.79
2023-01-20T03:21:05.627Z,984.79
2023-01-20T03:22:05.615Z,984.73
2023-01-20T03:23:05.632Z,984.81
2023-01-20T03:24:05.612Z,984.80
2023-01-20T03:25:05.595Z,984.82
2023-01-20T03:26:05.595Z,984.82
2023-01-20T03:27:05.581Z,984.87
2023-01-20T03:28:05.600Z,984.83
2023-01-20T03:29:05.588Z,984.82
2023-01-20T03:30:05.550Z,984.83
2023-01-20T03:31:05.596Z,984.84
2023-01-20T03:32:05.524Z,984.88
2023-01-20T03:33:05.516Z,984.95
2023-01-20T03:34:05.536Z,984.88
2023-01-20T03:35:05.505Z,984.89
2023-01-20T03:36:05.495Z,984.89
2023-01-20T03:37:05.492Z,984.90
2023-01-20T03:38:05.499Z,984.95
2023-01-20T03:39:05.458Z,984.94
2023-01-20T03:40:05.470Z,984.95
2023-01-20T03:41:05.443Z,984.95
2023-01-20T03:42:06.428Z,984.92
2023-01-20T03:43:05.443Z,984.95
2023-01-20T03:44:05.412Z,984.94
2023-01-20T03:45:05.397Z,984.98
2023-01-20T03:46:05.445Z,984.96
2023-01-20T03:47:05.395Z,985.01
2023-01-20T03:48:05.377Z,985.01
2023-01-20T03:49:05.355Z,985.05
2023-01-20T03:50:05.367Z,985.00
2023-01-20T03:51:05.339Z,985.06
2023-01-20T03:52:05.354Z,985.10
2023-01-20T03:53:05.331Z,985.03
2023-01-20T03:54:05.323Z,985.13
2023-01-20T03:55:05.321Z,985.14
2023-01-20T03:56:05.298Z,985.18
2023-01-20T03:57:05.303Z,985.15
2023-01-20T03:58:05.324Z,985.12
2023-01-20T03:59:05.281Z,985.14
2023-01-20T04:00:05.255Z,985.12
2023-01-20T04:01:17.791Z,985.11
2023-01-20T04:02:06.441Z,985.12
2023-01-20T04:03:05.271Z,985.18
2023-01-20T04:04:05.224Z,985.15
2023-01-20T04:05:05.222Z,985.11
2023-01-20T04:06:05.221Z,985.18
2023-01-20T04:07:05.186Z,985.12
2023-01-20T04:08:05.176Z,985.15
2023-01-20T04:09:06.183Z,985.23
2023-01-20T04:10:05.201Z,985.20
2023-01-20T04:11:05.153Z,985.18
2023-01-20T04:12:05.153Z,985.18
2023-01-20T04:13:05.128Z,985.20
2023-01-20T04:14:05.143Z,985.15
2023-01-20T04:15:05.137Z,985.13
2023-01-20T04:16:05.128Z,985.16
2023-01-20T04:17:05.100Z,985.18
2023-01-20T04:18:06.092Z,985.16
2023-01-20T04:19:05.088Z,985.16
2023-01-20T04:20:05.086Z,985.20
2023-01-20T04:21:05.068Z,985.25
2023-01-20T04:22:05.048Z,985.27
2023-01-20T04:23:05.028Z,985.29
2023-01-20T04:24:05.027Z,985.31
2023-01-20T04:25:05.030Z,985.30
2023-01-20T04:26:05.003Z,985.29
2023-01-20T04:27:05.020Z,985.27
2023-01-20T04:28:05.005Z,985.29
2023-01-20T04:29:04.967Z,985.30
2023-01-20T04:30:04.961Z,985.33
2023-01-20T04:31:05.062Z,985.28
2023-01-20T04:32:04.991Z,985.32
2023-01-20T04:33:04.948Z,985.30
2023-01-20T04:34:04.917Z,985.27
2023-01-20T04:35:04.922Z,985.26
2023-01-20T04:36:04.917Z,985.31
2023-01-20T04:37:04.919Z,985.32
2023-01-20T04:38:04.890Z,985.34
2023-01-20T04:39:04.889Z,985.38
2023-01-20T04:40:04.874Z,985.31
2023-01-20T04:41:04.876Z,985.39
2023-01-20T04:42:04.841Z,985.43
2023-01-20T04:43:04.836Z,985.44
2023-01-20T04:44:04.846Z,985.52
2023-01-20T04:45:04.855Z,985.54
2023-01-20T04:46:04.858Z,985.53
2023-01-20T04:47:04.814Z,985.54
2023-01-20T04:48:04.786Z,985.53
2023-01-20T04:49:04.778Z,985.62
2023-01-20T04:50:04.820Z,985.59
2023-01-20T04:51:04.780Z,985.60
2023-01-20T04:52:04.746Z,985.58
2023-01-20T04:53:04.745Z,985.57
2023-01-20T04:54:04.748Z,985.61
2023-01-20T04:55:04.716Z,985.63
2023-01-20T04:56:04.738Z,985.52
2023-01-20T04:57:04.698Z,985.60
2023-01-20T04:58:04.748Z,985.61
2023-01-20T04:59:04.679Z,985.58
2023-01-20T05:00:04.681Z,985.60
2023-01-20T05:01:04.754Z,985.60
2023-01-20T05:02:04.705Z,985.65
2023-01-20T05:03:04.736Z,985.66
2023-01-20T05:04:04.658Z,985.66
2023-01-20T05:05:04.622Z,985.68
2023-01-20T05:06:04.614Z,985.77
2023-01-20T05:07:04.609Z,985.72
2023-01-20T05:08:04.639Z,985.73
2023-01-20T05:09:04.595Z,985.69
2023-01-20T05:10:04.579Z,985.75
2023-01-20T05:11:04.605Z,985.78
2023-01-20T05:12:04.552Z,985.76
2023-01-20T05:13:04.557Z,985.75
2023-01-20T05:14:04.547Z,985.78
2023-01-20T05:15:04.564Z,985.80
2023-01-20T05:16:04.588Z,985.85
2023-01-20T05:17:04.521Z,985.82
2023-01-20T05:18:04.505Z,985.85
2023-01-20T05:19:04.509Z,985.88
2023-01-20T05:20:04.492Z,985.84
2023-01-20T05:21:04.502Z,985.84
2023-01-20T05:22:04.479Z,985.85
2023-01-20T05:23:04.483Z,985.87
2023-01-20T05:24:04.469Z,985.87
2023-01-20T05:25:04.453Z,985.86
2023-01-20T05:26:04.468Z,985.91
2023-01-20T05:27:04.423Z,985.98
2023-01-20T05:28:04.428Z,985.93
2023-01-20T05:29:04.425Z,985.99
2023-01-20T05:30:04.395Z,986.11
2023-01-20T05:31:04.532Z,986.02
2023-01-20T05:32:04.401Z,986.11
2023-01-20T05:33:04.400Z,986.06
2023-01-20T05:34:04.359Z,986.06
2023-01-20T05:35:04.349Z,986.07
2023-01-20T05:36:04.337Z,986.08
2023-01-20T05:37:04.319Z,986.17
2023-01-20T05:38:04.354Z,986.12
2023-01-20T05:39:04.318Z,986.10
2023-01-20T05:40:04.302Z,986.03
2023-01-20T05:41:04.293Z,986.07
2023-01-20T05:42:04.288Z,986.09
2023-01-20T05:43:04.282Z,986.09
2023-01-20T05:44:04.295Z,986.13
2023-01-20T05:45:04.259Z,986.13
2023-01-20T05:46:04.322Z,986.10
2023-01-20T05:47:04.234Z,986.16
2023-01-20T05:48:04.229Z,986.14
2023-01-20T05:49:04.224Z,986.13
2023-01-20T05:50:04.207Z,986.24
2023-01-20T05:51:04.200Z,986.23
2023-01-20T05:52:04.194Z,986.26
2023-01-20T05:53:04.173Z,986.31
2023-01-20T05:54:04.178Z,986.26
2023-01-20T05:55:04.174Z,986.28
2023-01-20T05:56:04.156Z,986.29
2023-01-20T05:57:04.199Z,986.24
2023-01-20T05:58:04.141Z,986.32
2023-01-20T05:59:04.138Z,986.36
2023-01-20T06:00:04.112Z,986.38
2023-01-20T06:01:04.125Z,986.36
2023-01-20T06:02:04.085Z,986.34
2023-01-20T06:03:04.132Z,986.36
2023-01-20T06:04:04.151Z,986.37
2023-01-20T06:05:04.080Z,986.35
2023-01-20T06:06:04.050Z,986.40
2023-01-20T06:07:04.035Z,986.39
2023-01-20T06:08:04.036Z,986.44
2023-01-20T06:09:04.021Z,986.45
2023-01-20T06:10:04.027Z,986.52
2023-01-20T06:11:03.995Z,986.53
2023-01-20T06:12:03.981Z,986.54
2023-01-20T06:13:04.049Z,986.55
2023-01-20T06:14:03.991Z,986.58
2023-01-20T06:15:04.090Z,986.56
2023-01-20T06:16:06.355Z,986.61
2023-01-20T06:17:04.015Z,986.58
2023-01-20T06:18:03.945Z,986.61
2023-01-20T06:19:03.930Z,986.63
2023-01-20T06:20:03.916Z,986.63
2023-01-20T06:21:03.919Z,986.67
2023-01-20T06:22:03.919Z,986.64
2023-01-20T06:23:03.902Z,986.60
2023-01-20T06:24:03.874Z,986.65
2023-01-20T06:25:03.871Z,986.64
2023-01-20T06:26:04.845Z,986.66
2023-01-20T06:27:03.888Z,986.62
2023-01-20T06:28:03.847Z,986.62
2023-01-20T06:29:03.843Z,986.57
2023-01-20T06:30:04.830Z,986.57
2023-01-20T06:31:03.926Z,986.64
2023-01-20T06:32:03.804Z,986.67
2023-01-20T06:33:03.795Z,986.61
2023-01-20T06:34:03.806Z,986.67
2023-01-20T06:35:03.785Z,986.65
2023-01-20T06:36:03.780Z,986.68
2023-01-20T06:37:03.782Z,986.74
2023-01-20T06:38:03.757Z,986.72
2023-01-20T06:39:03.749Z,986.86
2023-01-20T06:40:03.745Z,986.80
2023-01-20T06:41:03.862Z,986.81
2023-01-20T06:42:04.707Z,986.77
2023-01-20T06:43:03.677Z,986.80
2023-01-20T06:44:03.677Z,986.82
2023-01-20T06:45:03.673Z,986.82
2023-01-20T06:46:03.682Z,986.82
2023-01-20T06:47:03.711Z,986.88
2023-01-20T06:48:03.657Z,986.87
2023-01-20T06:49:03.624Z,986.83
2023-01-20T06:50:03.644Z,986.88
2023-01-20T06:51:03.625Z,986.83
2023-01-20T06:52:03.602Z,986.85
2023-01-20T06:53:04.202Z,986.90
2023-01-20T06:54:03.604Z,986.89
2023-01-20T06:55:03.574Z,986.94
2023-01-20T06:56:03.616Z,986.95
2023-01-20T06:57:03.565Z,986.92
2023-01-20T06:58:03.561Z,986.90
2023-01-20T06:59:03.530Z,986.93
2023-01-20T07:00:03.526Z,987.04
2023-01-20T07:01:03.700Z,987.06
2023-01-20T07:02:03.604Z,987.09
2023-01-20T07:03:03.610Z,987.03
2023-01-20T07:04:03.522Z,987.05
2023-01-20T07:05:03.486Z,987.04
2023-01-20T07:06:03.483Z,987.09
2023-01-20T07:07:03.474Z,987.15
2023-01-20T07:08:03.489Z,987.11
2023-01-20T07:09:03.439Z,987.09
2023-01-20T07:10:03.429Z,987.10
2023-01-20T07:11:03.425Z,987.12
2023-01-20T07:12:03.439Z,987.17
2023-01-20T07:13:03.438Z,987.17
2023-01-20T07:14:03.396Z,987.13
2023-01-20T07:15:03.387Z,987.09
2023-01-20T07:16:03.440Z,987.17
2023-01-20T07:17:03.467Z,987.13
2023-01-20T07:18:03.350Z,987.19
2023-01-20T07:19:03.344Z,987.15
2023-01-20T07:20:03.350Z,987.20
2023-01-20T07:21:03.351Z,987.25
2023-01-20T07:22:03.308Z,987.21
2023-01-20T07:23:03.321Z,987.20
2023-01-20T07:24:03.299Z,987.24
2023-01-20T07:25:03.309Z,987.21
2023-01-20T07:26:03.309Z,987.22
2023-01-20T07:27:03.276Z,987.30
2023-01-20T07:28:03.253Z,987.26
2023-01-20T07:29:03.270Z,987.32
2023-01-20T07:30:03.257Z,987.23
2023-01-20T07:31:03.228Z,987.30
2023-01-20T07:32:03.300Z,987.33
2023-01-20T07:33:03.204Z,987.30
2023-01-20T07:34:03.191Z,987.28
2023-01-20T07:35:03.298Z,987.28
2023-01-20T07:36:03.226Z,987.33
2023-01-20T07:37:03.253Z,987.32
2023-01-20T07:38:03.229Z,987.27
2023-01-20T07:39:03.138Z,987.35
2023-01-20T07:40:03.234Z,987.29
2023-01-20T07:41:05.002Z,987.33
2023-01-20T07:42:04.257Z,987.36
2023-01-20T07:43:03.117Z,987.37
2023-01-20T07:44:03.114Z,987.42
2023-01-20T07:45:03.086Z,987.47
2023-01-20T07:46:03.123Z,987.44
2023-01-20T07:47:03.076Z,987.45
2023-01-20T07:48:03.069Z,987.48
2023-01-20T07:49:03.089Z,987.42
2023-01-20T07:50:03.123Z,987.47
2023-01-20T07:51:03.029Z,987.52
2023-01-20T07:52:34.973Z,987.53
2023-01-20T07:53:03.032Z,987.53
2023-01-20T07:54:03.023Z,987.54
2023-01-20T07:55:02.997Z,987.57
2023-01-20T07:56:02.975Z,987.62
2023-01-20T07:57:02.974Z,987.56
2023-01-20T07:58:02.944Z,987.56
2023-01-20T07:59:02.942Z,987.61
2023-01-20T08:00:02.944Z,987.59
2023-01-20T08:01:03.052Z,987.53
2023-01-20T08:02:02.978Z,987.61
2023-01-20T08:03:02.926Z,987.60
2023-01-20T08:04:02.914Z,987.58
2023-01-20T08:05:02.921Z,987.52
2023-01-20T08:06:02.875Z,987.59
2023-01-20T08:07:02.853Z,987.52
2023-01-20T08:08:02.858Z,987.58
2023-01-20T08:09:02.857Z,987.56
2023-01-20T08:10:02.833Z,987.53
2023-01-20T08:11:02.813Z,987.57
2023-01-20T08:12:02.815Z,987.62
2023-01-20T08:13:02.786Z,987.62
2023-01-20T08:14:02.806Z,987.59
2023-01-20T08:15:02.792Z,987.60
2023-01-20T08:16:02.772Z,987.61
2023-01-20T08:17:02.753Z,987.61
2023-01-20T08:18:02.759Z,987.63
2023-01-20T08:19:02.756Z,987.69
2023-01-20T08:20:02.720Z,987.69
2023-01-20T08:21:02.716Z,987.67
2023-01-20T08:22:02.715Z,987.76
2023-01-20T08:23:02.715Z,987.70
2023-01-20T08:24:02.737Z,987.71
2023-01-20T08:25:02.694Z,987.71
2023-01-20T08:26:02.687Z,987.79
2023-01-20T08:27:02.686Z,987.80
2023-01-20T08:28:04.829Z,987.86
2023-01-20T08:29:02.638Z,987.84
2023-01-20T08:30:02.611Z,987.84
2023-01-20T08:31:02.744Z,987.87
2023-01-20T08:32:02.613Z,987.87
2023-01-20T08:33:02.614Z,987.87
2023-01-20T08:34:02.584Z,987.91
2023-01-20T08:35:02.608Z,987.92
2023-01-20T08:36:03.575Z,987.94
2023-01-20T08:37:02.568Z,987.91
2023-01-20T08:38:02.544Z,987.92
2023-01-20T08:39:02.587Z,987.93
2023-01-20T08:40:02.548Z,987.96
2023-01-20T08:41:02.517Z,987.98
2023-01-20T08:42:02.526Z,988.03
2023-01-20T08:43:02.490Z,988.05
2023-01-20T08:44:02.508Z,987.99
2023-01-20T08:45:03.526Z,988.03
2023-01-20T08:46:02.578Z,988.06
2023-01-20T08:47:02.459Z,988.00
2023-01-20T08:48:02.470Z,987.98
2023-01-20T08:49:02.438Z,988.02
2023-01-20T08:50:03.473Z,988.08
2023-01-20T08:51:02.483Z,988.03
2023-01-20T08:52:02.410Z,988.01
2023-01-20T08:53:02.411Z,988.02
2023-01-20T08:54:02.393Z,988.07
2023-01-20T08:55:02.394Z,988.02
2023-01-20T08:56:02.426Z,988.03
2023-01-20T08:57:02.356Z,988.01
2023-01-20T08:58:02.384Z,988.01
2023-01-20T08:59:02.356Z,988.06
2023-01-20T09:00:02.370Z,988.07
2023-01-20T09:01:02.376Z,988.10
2023-01-20T09:02:02.319Z,988.16
2023-01-20T09:03:02.325Z,988.13
2023-01-20T09:04:06.576Z,988.14
2023-01-20T09:05:03.296Z,988.18
2023-01-20T09:06:02.267Z,988.13
2023-01-20T09:07:02.283Z,988.10
2023-01-20T09:08:02.265Z,988.21
2023-01-20T09:09:04.447Z,988.15
2023-01-20T09:10:03.254Z,988.18
2023-01-20T09:11:02.235Z,988.22
2023-01-20T09:12:02.219Z,988.23
2023-01-20T09:13:02.217Z,988.22
2023-01-20T09:14:02.206Z,988.24
2023-01-20T09:15:04.837Z,988.28
2023-01-20T09:16:03.212Z,988.22
2023-01-20T09:17:02.203Z,988.29
2023-01-20T09:18:02.168Z,988.27
2023-01-20T09:19:02.159Z,988.32
2023-01-20T09:20:02.177Z,988.31
2023-01-20T09:21:02.149Z,988.35
2023-01-20T09:22:02.137Z,988.32
2023-01-20T09:23:02.135Z,988.39
2023-01-20T09:24:02.127Z,988.36
2023-01-20T09:25:02.121Z,988.39
2023-01-20T09:26:02.111Z,988.41
2023-01-20T09:27:02.095Z,988.42
2023-01-20T09:28:02.086Z,988.43
2023-01-20T09:29:02.063Z,988.46
2023-01-20T09:30:02.043Z,988.37
2023-01-20T09:31:02.154Z,988.42
2023-01-20T09:32:02.119Z,988.44
2023-01-20T09:33:02.022Z,988.38
2023-01-20T09:34:01.999Z,988.43
2023-01-20T09:35:02.018Z,988.52
2023-01-20T09:36:01.985Z,988.47
2023-01-20T09:37:02.011Z,988.50
2023-01-20T09:38:01.979Z,988.48
2023-01-20T09:39:01.966Z,988.46
2023-01-20T09:40:01.987Z,988.52
2023-01-20T09:41:01.928Z,988.45
2023-01-20T09:42:01.918Z,988.48
2023-01-20T09:43:01.934Z,988.41
2023-01-20T09:44:01.940Z,988.49
2023-01-20T09:45:01.929Z,988.46
2023-01-20T09:46:01.904Z,988.43
2023-01-20T09:47:01.902Z,988.49
2023-01-20T09:48:01.876Z,988.48
2023-01-20T09:49:01.870Z,988.49
2023-01-20T09:50:01.854Z,988.50
2023-01-20T09:51:01.864Z,988.45
2023-01-20T09:52:01.832Z,988.49
2023-01-20T09:53:01.815Z,988.47
2023-01-20T09:54:01.826Z,988.48
2023-01-20T09:55:01.803Z,988.55
2023-01-20T09:56:01.822Z,988.47
2023-01-20T09:57:01.781Z,988.49
2023-01-20T09:58:01.777Z,988.54
2023-01-20T09:59:01.772Z,988.55
2023-01-20T10:00:01.752Z,988.54
2023-01-20T10:01:01.763Z,988.54
2023-01-20T10:02:01.759Z,988.57
2023-01-20T10:03:01.731Z,988.53
2023-01-20T10:04:04.033Z,988.54
2023-01-20T10:05:01.771Z,988.61
2023-01-20T10:06:01.708Z,988.60
2023-01-20T10:07:01.694Z,988.64
2023-01-20T10:08:01.695Z,988.58
2023-01-20T10:09:05.894Z,988.60
2023-01-20T10:10:02.677Z,988.66
2023-01-20T10:11:01.651Z,988.68
2023-01-20T10:12:01.658Z,988.64
2023-01-20T10:13:02.632Z,988.60
2023-01-20T10:14:01.631Z,988.67
2023-01-20T10:15:01.620Z,988.62
2023-01-20T10:16:01.623Z,988.62
2023-01-20T10:17:01.612Z,988.72
2023-01-20T10:18:01.611Z,988.71
2023-01-20T10:19:01.588Z,988.76
2023-01-20T10:20:01.649Z,988.73
2023-01-20T10:21:01.563Z,988.67
2023-01-20T10:22:01.568Z,988.73
2023-01-20T10:23:01.573Z,988.70
2023-01-20T10:24:01.542Z,988.73
2023-01-20T10:25:01.551Z,988.77
2023-01-20T10:26:01.534Z,988.79
2023-01-20T10:27:01.500Z,988.77
2023-01-20T10:28:01.572Z,988.80
2023-01-20T10:29:01.542Z,988.76
2023-01-20T10:30:01.490Z,988.86
2023-01-20T10:31:01.557Z,988.78
2023-01-20T10:32:01.446Z,988.83
2023-01-20T10:33:01.453Z,988.89
2023-01-20T10:34:01.429Z,988.83
2023-01-20T10:35:01.435Z,988.87
2023-01-20T10:36:01.406Z,988.92
2023-01-20T10:37:01.393Z,988.94
2023-01-20T10:38:01.389Z,988.98
2023-01-20T10:39:01.376Z,988.96
2023-01-20T10:40:01.395Z,988.90
2023-01-20T10:41:01.368Z,988.94
2023-01-20T10:42:01.370Z,988.93
2023-01-20T10:43:01.334Z,989.02
2023-01-20T10:44:01.335Z,988.98
2023-01-20T10:45:01.356Z,988.97
2023-01-20T10:46:01.345Z,988.91
2023-01-20T10:47:01.304Z,988.95
2023-01-20T10:48:01.290Z,988.94
2023-01-20T10:49:01.281Z,988.93
2023-01-20T10:50:01.261Z,988.90
2023-01-20T10:51:01.282Z,988.97
2023-01-20T10:52:01.264Z,988.92
2023-01-20T10:53:01.242Z,989.00
2023-01-20T10:54:01.233Z,988.98
2023-01-20T10:55:01.224Z,989.05
2023-01-20T10:56:01.239Z,989.08
2023-01-20T10:57:01.202Z,989.08
2023-01-20T10:58:01.197Z,989.10
2023-01-20T10:59:01.181Z,989.14
2023-01-20T11:00:01.171Z,989.10
2023-01-20T11:01:01.184Z,989.14
2023-01-20T11:02:11.555Z,989.13
2023-01-20T11:03:03.186Z,989.11
2023-01-20T11:04:01.162Z,989.16
2023-01-20T11:05:01.131Z,989.11
2023-01-20T11:06:01.127Z,989.16
2023-01-20T11:07:01.132Z,989.17
2023-01-20T11:08:01.098Z,989.21
2023-01-20T11:09:01.095Z,989.20
2023-01-20T11:10:01.107Z,989.20
2023-01-20T11:11:01.097Z,989.21
2023-01-20T11:12:01.052Z,989.23
2023-01-20T11:13:01.065Z,989.16
2023-01-20T11:14:01.044Z,989.29
2023-01-20T11:15:01.063Z,989.21
2023-01-20T11:16:01.132Z,989.26
2023-01-20T11:17:01.040Z,989.26
2023-01-20T11:18:01.011Z,989.29
2023-01-20T11:19:00.997Z,989.26
2023-01-20T11:20:00.991Z,989.30
2023-01-20T11:21:00.987Z,989.27
2023-01-20T11:22:00.966Z,989.29
2023-01-20T11:23:00.950Z,989.29
2023-01-20T11:24:00.960Z,989.31
2023-01-20T11:25:00.939Z,989.29
2023-01-20T11:26:00.941Z,989.34
2023-01-20T11:27:00.915Z,989.31
2023-01-20T11:28:00.905Z,989.30
2023-01-20T11:29:00.918Z,989.35
2023-01-20T11:30:00.889Z,989.32
2023-01-20T11:31:01.033Z,989.27
2023-01-20T11:32:00.872Z,989.32
2023-01-20T11:33:00.892Z,989.36
2023-01-20T11:34:00.851Z,989.36
2023-01-20T11:35:00.832Z,989.41
2023-01-20T11:36:00.836Z,989.41
2023-01-20T11:37:00.824Z,989.40
2023-01-20T11:38:00.824Z,989.42
2023-01-20T11:39:00.825Z,989.38
2023-01-20T11:40:00.807Z,989.43
2023-01-20T11:41:00.797Z,989.46
2023-01-20T11:42:00.779Z,989.39
2023-01-20T11:43:00.782Z,989.43
2023-01-20T11:44:00.746Z,989.39
2023-01-20T11:45:19.781Z,989.35
2023-01-20T11:46:02.748Z,989.33
2023-01-20T11:47:00.723Z,989.41
2023-01-20T11:48:00.732Z,989.36
2023-01-20T11:49:00.701Z,989.36
2023-01-20T11:50:00.692Z,989.38
2023-01-20T11:51:00.719Z,989.37
2023-01-20T11:52:00.749Z,989.42
2023-01-20T11:53:00.664Z,989.45
2023-01-20T11:54:00.662Z,989.43
2023-01-20T11:55:00.642Z,989.42
2023-01-20T11:56:00.656Z,989.42
2023-01-20T11:57:01.620Z,989.45
2023-01-20T11:58:00.614Z,989.42
2023-01-20T11:59:00.620Z,989.46
2023-01-20T12:00:00.612Z,989.41
2023-01-20T12:01:00.584Z,989.49
2023-01-20T12:02:00.637Z,989.51
2023-01-20T12:03:00.570Z,989.51
2023-01-20T12:04:00.647Z,989.46
2023-01-20T12:05:00.541Z,989.43
2023-01-20T12:06:00.555Z,989.37
2023-01-20T12:07:00.523Z,989.37
2023-01-20T12:08:01.560Z,989.40
2023-01-20T12:09:00.524Z,989.38
2023-01-20T12:10:00.489Z,989.39
2023-01-20T12:11:00.492Z,989.40
2023-01-20T12:12:00.500Z,989.42
2023-01-20T12:13:00.483Z,989.38
2023-01-20T12:14:00.474Z,989.41
2023-01-20T12:15:00.425Z,989.46
2023-01-20T12:16:00.581Z,989.43
2023-01-20T12:17:00.429Z,989.41
2023-01-20T12:18:00.414Z,989.42
2023-01-20T12:19:02.780Z,989.44
2023-01-20T12:20:00.419Z,989.48
2023-01-20T12:21:00.379Z,989.46
2023-01-20T12:22:00.378Z,989.42
2023-01-20T12:23:00.369Z,989.46
2023-01-20T12:24:03.033Z,989.49
2023-01-20T12:25:00.376Z,989.51
2023-01-20T12:26:00.348Z,989.51
2023-01-20T12:27:00.321Z,989.51
2023-01-20T12:28:00.310Z,989.50